sensor_id;sensor_type;location;lat;lon;timestamp;pressure;altitude;pressure_sealevel;temperature;humidity
8523;BME280;4299;42.202;24.736;2022-12-08T00:00:26;99634.38;;;6.61;100.00
8523;BME280;4299;42.202;24.736;2022-12-08T00:02:52;99621.50;;;6.54;100.00
8523;BME280;4299;42.202;24.736;2022-12-08T00:05:20;99625.78;;;6.56;100.00
8523;BME280;4299;42.202;24.736;2022-12-08T00:08:05;99623.06;;;6.58;100.00
8523;BME280;4299;42.202;24.736;2022-12-08T00:10:57;99625.56;;;6.62;100.00
8523;BME280;4299;42.202;24.736;2022-12-08T00:13:24;99620.16;;;6.65;100.00
8523;BME280;4299;42.202;24.736;2022-12-08T00:15:51;99630.47;;;6.72;100.00
8523;BME280;4299;42.202;24.736;2022-12-08T00:18:17;99638.00;;;6.81;100.00
8523;BME280;4299;42.202;24.736;2022-12-08T00:20:45;99636.66;;;6.94;100.00
8523;BME280;4299;42.202;24.736;2022-12-08T00:23:19;99643.41;;;7.01;100.00
8523;BME280;4299;42.202;24.736;2022-12-08T00:25:46;99640.50;;;7.07;100.00
8523;BME280;4299;42.202;24.736;2022-12-08T00:28:13;99650.00;;;7.11;100.00
8523;BME280;4299;42.202;24.736;2022-12-08T00:30:40;99651.72;;;7.12;100.00
8523;BME280;4299;42.202;24.736;2022-12-08T00:33:07;99646.34;;;7.15;100.00
8523;BME280;4299;42.202;24.736;2022-12-08T00:35:34;99646.34;;;7.15;100.00
8523;BME280;4299;42.202;24.736;2022-12-08T00:38:02;99649.50;;;7.23;100.00
8523;BME280;4299;42.202;24.736;2022-12-08T00:40:29;99647.91;;;7.19;100.00
8523;BME280;4299;42.202;24.736;2022-12-08T00:42:56;99647.25;;;7.14;100.00
8523;BME280;4299;42.202;24.736;2022-12-08T00:45:23;99642.66;;;7.19;100.00
8523;BME280;4299;42.202;24.736;2022-12-08T00:47:49;99652.03;;;7.26;100.00
8523;BME280;4299;42.202;24.736;2022-12-08T00:50:16;99663.50;;;7.25;100.00
8523;BME280;4299;42.202;24.736;2022-12-08T00:52:43;99651.38;;;7.21;100.00
8523;BME280;4299;42.202;24.736;2022-12-08T00:55:11;99651.72;;;7.12;100.00
8523;BME280;4299;42.202;24.736;2022-12-08T00:57:38;99647.03;;;6.97;100.00
8523;BME280;4299;42.202;24.736;2022-12-08T01:00:06;99648.16;;;6.91;100.00
8523;BME280;4299;42.202;24.736;2022-12-08T01:02:33;99638.56;;;6.89;100.00
8523;BME280;4299;42.202;24.736;2022-12-08T01:04:59;99644.91;;;6.85;100.00
8523;BME280;4299;42.202;24.736;2022-12-08T01:07:26;99642.50;;;6.79;100.00
8523;BME280;4299;42.202;24.736;2022-12-08T01:09:53;99647.97;;;6.73;100.00
8523;BME280;4299;42.202;24.736;2022-12-08T01:12:23;99645.44;;;6.71;100.00
8523;BME280;4299;42.202;24.736;2022-12-08T01:14:50;99648.06;;;6.71;100.00
8523;BME280;4299;42.202;24.736;2022-12-08T01:17:17;99651.94;;;6.84;100.00
8523;BME280;4299;42.202;24.736;2022-12-08T01:19:43;99650.94;;;6.87;100.00
8523;BME280;4299;42.202;24.736;2022-12-08T01:22:10;99645.81;;;6.84;100.00
8523;BME280;4299;42.202;24.736;2022-12-08T01:24:37;99644.19;;;6.80;100.00
8523;BME280;4299;42.202;24.736;2022-12-08T01:27:04;99647.63;;;6.82;100.00
8523;BME280;4299;42.202;24.736;2022-12-08T01:29:32;99644.03;;;6.84;100.00
8523;BME280;4299;42.202;24.736;2022-12-08T01:31:59;99644.09;;;6.83;100.00
8523;BME280;4299;42.202;24.736;2022-12-08T01:34:25;99643.84;;;6.89;100.00
8523;BME280;4299;42.202;24.736;2022-12-08T01:36:52;99650.72;;;6.93;100.00
8523;BME280;4299;42.202;24.736;2022-12-08T01:39:19;99643.59;;;6.95;100.00
8523;BME280;4299;42.202;24.736;2022-12-08T01:41:46;99645.47;;;6.93;100.00
8523;BME280;4299;42.202;24.736;2022-12-08T01:44:53;99645.78;;;7.07;100.00
8523;BME280;4299;42.202;24.736;2022-12-08T01:47:22;99655.16;;;7.14;100.00
8523;BME280;4299;42.202;24.736;2022-12-08T01:49:50;99659.03;;;7.27;100.00
8523;BME280;4299;42.202;24.736;2022-12-08T01:52:22;99647.97;;;7.39;100.00
8523;BME280;4299;42.202;24.736;2022-12-08T01:54:53;99645.09;;;7.46;100.00
8523;BME280;4299;42.202;24.736;2022-12-08T01:57:22;99639.94;;;7.42;100.00
8523;BME280;4299;42.202;24.736;2022-12-08T01:59:56;99644.97;;;7.49;100.00
8523;BME280;4299;42.202;24.736;2022-12-08T02:02:28;99643.25;;;7.48;100.00
8523;BME280;4299;42.202;24.736;2022-12-08T02:04:57;99647.72;;;7.46;100.00
8523;BME280;4299;42.202;24.736;2022-12-08T02:07:24;99637.97;;;7.48;100.00
8523;BME280;4299;42.202;24.736;2022-12-08T02:09:52;99646.81;;;7.47;100.00
8523;BME280;4299;42.202;24.736;2022-12-08T02:12:18;99642.59;;;7.42;100.00
8523;BME280;4299;42.202;24.736;2022-12-08T02:14:45;99644.47;;;7.39;100.00
8523;BME280;4299;42.202;24.736;2022-12-08T02:17:26;99641.94;;;7.37;100.00
8523;BME280;4299;42.202;24.736;2022-12-08T02:20:30;99630.97;;;7.47;100.00
8523;BME280;4299;42.202;24.736;2022-12-08T02:23:07;99633.81;;;7.42;100.00
8523;BME280;4299;42.202;24.736;2022-12-08T02:25:43;99631.91;;;7.46;100.00
8523;BME280;4299;42.202;24.736;2022-12-08T02:28:39;99636.94;;;7.52;100.00
8523;BME280;4299;42.202;24.736;2022-12-08T02:31:17;99646.69;;;7.50;100.00
8523;BME280;4299;42.202;24.736;2022-12-08T02:34:03;99650.00;;;7.55;100.00
8523;BME280;4299;42.202;24.736;2022-12-08T02:36:38;99661.72;;;7.48;100.00
8523;BME280;4299;42.202;24.736;2022-12-08T02:39:16;99655.78;;;7.42;100.00
8523;BME280;4299;42.202;24.736;2022-12-08T02:41:52;99662.88;;;7.40;100.00
8523;BME280;4299;42.202;24.736;2022-12-08T02:44:27;99661.16;;;7.39;100.00
8523;BME280;4299;42.202;24.736;2022-12-08T02:46:57;99654.66;;;7.26;100.00
8523;BME280;4299;42.202;24.736;2022-12-08T02:49:31;99656.75;;;7.18;100.00
8523;BME280;4299;42.202;24.736;2022-12-08T02:52:06;99658.06;;;7.08;100.00
8523;BME280;4299;42.202;24.736;2022-12-08T02:54:34;99661.03;;;6.99;100.00
8523;BME280;4299;42.202;24.736;2022-12-08T02:57:16;99664.69;;;6.95;100.00
8523;BME280;4299;42.202;24.736;2022-12-08T02:59:59;99666.88;;;6.84;100.00
8523;BME280;4299;42.202;24.736;2022-12-08T03:02:41;99666.06;;;6.82;100.00
8523;BME280;4299;42.202;24.736;2022-12-08T03:05:19;99652.28;;;6.75;100.00
8523;BME280;4299;42.202;24.736;2022-12-08T03:07:55;99655.09;;;6.71;100.00
8523;BME280;4299;42.202;24.736;2022-12-08T03:10:30;99654.25;;;6.70;100.00
8523;BME280;4299;42.202;24.736;2022-12-08T03:13:01;99645.28;;;6.74;100.00
8523;BME280;4299;42.202;24.736;2022-12-08T03:15:30;99654.72;;;6.80;100.00
8523;BME280;4299;42.202;24.736;2022-12-08T03:17:58;99661.63;;;6.84;100.00
8523;BME280;4299;42.202;24.736;2022-12-08T03:20:29;99661.09;;;6.74;100.00
8523;BME280;4299;42.202;24.736;2022-12-08T03:22:57;99660.25;;;6.74;100.00
8523;BME280;4299;42.202;24.736;2022-12-08T03:25:28;99654.44;;;6.87;100.00
8523;BME280;4299;42.202;24.736;2022-12-08T03:27:55;99642.59;;;6.76;100.00
8523;BME280;4299;42.202;24.736;2022-12-08T03:30:23;99639.16;;;6.74;100.00
8523;BME280;4299;42.202;24.736;2022-12-08T03:32:55;99634.75;;;6.74;100.00
8523;BME280;4299;42.202;24.736;2022-12-08T03:35:25;99645.44;;;6.71;100.00
8523;BME280;4299;42.202;24.736;2022-12-08T03:38:02;99642.09;;;6.66;100.00
8523;BME280;4299;42.202;24.736;2022-12-08T03:40:29;99655.16;;;6.69;100.00
8523;BME280;4299;42.202;24.736;2022-12-08T03:42:56;99650.16;;;6.61;100.00
8523;BME280;4299;42.202;24.736;2022-12-08T03:45:22;99651.91;;;6.62;100.00
8523;BME280;4299;42.202;24.736;2022-12-08T03:47:49;99653.63;;;6.63;100.00
8523;BME280;4299;42.202;24.736;2022-12-08T03:50:16;99653.47;;;6.67;100.00
8523;BME280;4299;42.202;24.736;2022-12-08T03:52:43;99658.75;;;6.67;100.00
8523;BME280;4299;42.202;24.736;2022-12-08T03:55:11;99661.72;;;6.81;100.00
8523;BME280;4299;42.202;24.736;2022-12-08T03:57:38;99658.19;;;6.82;100.00
8523;BME280;4299;42.202;24.736;2022-12-08T04:00:06;99661.63;;;6.84;100.00
8523;BME280;4299;42.202;24.736;2022-12-08T04:02:33;99658.94;;;6.85;100.00
8523;BME280;4299;42.202;24.736;2022-12-08T04:05:00;99644.72;;;6.89;100.00
8523;BME280;4299;42.202;24.736;2022-12-08T04:07:26;99646.94;;;7.00;100.00
8523;BME280;4299;42.202;24.736;2022-12-08T04:09:53;99639.09;;;6.98;100.00
8523;BME280;4299;42.202;24.736;2022-12-08T04:12:21;99655.75;;;6.99;100.00
8523;BME280;4299;42.202;24.736;2022-12-08T04:14:51;99663.63;;;7.00;100.00
8523;BME280;4299;42.202;24.736;2022-12-08T04:17:17;99655.75;;;6.99;100.00
8523;BME280;4299;42.202;24.736;2022-12-08T04:19:44;99667.94;;;7.01;100.00
8523;BME280;4299;42.202;24.736;2022-12-08T04:22:11;99661.03;;;6.99;100.00
8523;BME280;4299;42.202;24.736;2022-12-08T04:24:37;99655.63;;;7.02;100.00
8523;BME280;4299;42.202;24.736;2022-12-08T04:27:04;99659.41;;;6.95;100.00
8523;BME280;4299;42.202;24.736;2022-12-08T04:29:32;99661.13;;;6.96;100.00
8523;BME280;4299;42.202;24.736;2022-12-08T04:31:59;99655.88;;;6.96;100.00
8523;BME280;4299;42.202;24.736;2022-12-08T04:34:26;99669.97;;;6.95;100.00
8523;BME280;4299;42.202;24.736;2022-12-08T04:36:52;99665.44;;;6.98;100.00
8523;BME280;4299;42.202;24.736;2022-12-08T04:39:19;99674.25;;;6.97;100.00
8523;BME280;4299;42.202;24.736;2022-12-08T04:41:46;99674.31;;;6.96;100.00
8523;BME280;4299;42.202;24.736;2022-12-08T04:44:12;99669.84;;;6.98;100.00
8523;BME280;4299;42.202;24.736;2022-12-08T04:46:40;99666.31;;;6.99;100.00
8523;BME280;4299;42.202;24.736;2022-12-08T04:49:07;99665.38;;;7.00;100.00
8523;BME280;4299;42.202;24.736;2022-12-08T04:51:34;99658.34;;;7.00;100.00
8523;BME280;4299;42.202;24.736;2022-12-08T04:54:00;99648.53;;;7.04;100.00
8523;BME280;4299;42.202;24.736;2022-12-08T04:56:27;99654.31;;;7.14;100.00
8523;BME280;4299;42.202;24.736;2022-12-08T04:58:54;99658.47;;;7.19;100.00
8523;BME280;4299;42.202;24.736;2022-12-08T05:01:20;99668.91;;;7.22;100.00
8523;BME280;4299;42.202;24.736;2022-12-08T05:03:49;99665.47;;;7.20;100.00
8523;BME280;4299;42.202;24.736;2022-12-08T05:06:15;99674.28;;;7.19;100.00
8523;BME280;4299;42.202;24.736;2022-12-08T05:08:42;99671.66;;;7.19;100.00
8523;BME280;4299;42.202;24.736;2022-12-08T05:11:11;99678.84;;;7.16;100.00
8523;BME280;4299;42.202;24.736;2022-12-08T05:13:38;99681.53;;;7.14;100.00
8523;BME280;4299;42.202;24.736;2022-12-08T05:16:06;99683.34;;;7.12;100.00
8523;BME280;4299;42.202;24.736;2022-12-08T05:18:34;99688.63;;;7.12;100.00
8523;BME280;4299;42.202;24.736;2022-12-08T05:21:03;99682.53;;;7.10;100.00
8523;BME280;4299;42.202;24.736;2022-12-08T05:23:30;99679.91;;;7.10;100.00
8523;BME280;4299;42.202;24.736;2022-12-08T05:25:57;99681.63;;;7.11;100.00
8523;BME280;4299;42.202;24.736;2022-12-08T05:28:23;99679.91;;;7.10;100.00
8523;BME280;4299;42.202;24.736;2022-12-08T05:30:50;99694.88;;;7.10;100.00
8523;BME280;4299;42.202;24.736;2022-12-08T05:33:17;99694.00;;;7.09;100.00
8523;BME280;4299;42.202;24.736;2022-12-08T05:35:44;99696.59;;;7.11;100.00
8523;BME280;4299;42.202;24.736;2022-12-08T05:38:12;99695.63;;;7.13;100.00
8523;BME280;4299;42.202;24.736;2022-12-08T05:40:40;99695.63;;;7.13;100.00
8523;BME280;4299;42.202;24.736;2022-12-08T05:43:08;99702.63;;;7.14;100.00
8523;BME280;4299;42.202;24.736;2022-12-08T05:45:35;99698.13;;;7.16;100.00
8523;BME280;4299;42.202;24.736;2022-12-08T05:48:02;99699.84;;;7.17;100.00
8523;BME280;4299;42.202;24.736;2022-12-08T05:50:29;99711.19;;;7.19;100.00
8523;BME280;4299;42.202;24.736;2022-12-08T05:52:56;99720.78;;;7.22;100.00
8523;BME280;4299;42.202;24.736;2022-12-08T05:55:24;99719.78;;;7.24;100.00
8523;BME280;4299;42.202;24.736;2022-12-08T05:57:50;99719.78;;;7.24;100.00
8523;BME280;4299;42.202;24.736;2022-12-08T06:00:18;99717.09;;;7.26;100.00
8523;BME280;4299;42.202;24.736;2022-12-08T06:02:45;99723.22;;;7.26;100.00
8523;BME280;4299;42.202;24.736;2022-12-08T06:05:12;99729.31;;;7.28;100.00
8523;BME280;4299;42.202;24.736;2022-12-08T06:07:42;99720.38;;;7.31;100.00
8523;BME280;4299;42.202;24.736;2022-12-08T06:10:09;99733.53;;;7.32;100.00
8523;BME280;4299;42.202;24.736;2022-12-08T06:12:37;99725.56;;;7.34;100.00
8523;BME280;4299;42.202;24.736;2022-12-08T06:15:05;99722.72;;;7.38;100.00
8523;BME280;4299;42.202;24.736;2022-12-08T06:17:32;99723.53;;;7.40;100.00
8523;BME280;4299;42.202;24.736;2022-12-08T06:19:59;99727.78;;;7.45;100.00
8523;BME280;4299;42.202;24.736;2022-12-08T06:22:25;99717.09;;;7.48;100.00
8523;BME280;4299;42.202;24.736;2022-12-08T06:24:52;99724.09;;;7.49;100.00
8523;BME280;4299;42.202;24.736;2022-12-08T06:27:19;99719.56;;;7.52;100.00
8523;BME280;4299;42.202;24.736;2022-12-08T06:29:47;99728.16;;;7.57;100.00
8523;BME280;4299;42.202;24.736;2022-12-08T06:32:13;99733.44;;;7.57;100.00
8523;BME280;4299;42.202;24.736;2022-12-08T06:34:40;99736.88;;;7.59;100.00
8523;BME280;4299;42.202;24.736;2022-12-08T06:37:07;99741.03;;;7.65;100.00
8523;BME280;4299;42.202;24.736;2022-12-08T06:39:34;99737.34;;;7.69;100.00
8523;BME280;4299;42.202;24.736;2022-12-08T06:42:00;99732.06;;;7.69;100.00
8523;BME280;4299;42.202;24.736;2022-12-08T06:44:47;99728.66;;;7.67;100.00
8523;BME280;4299;42.202;24.736;2022-12-08T06:47:14;99737.47;;;7.66;100.00
8523;BME280;4299;42.202;24.736;2022-12-08T06:49:41;99742.63;;;7.69;100.00
8523;BME280;4299;42.202;24.736;2022-12-08T06:52:21;99742.75;;;7.66;100.00
8523;BME280;4299;42.202;24.736;2022-12-08T06:54:48;99749.75;;;7.67;100.00
8523;BME280;4299;42.202;24.736;2022-12-08T06:57:15;99747.91;;;7.69;100.00
8523;BME280;4299;42.202;24.736;2022-12-08T06:59:42;99742.50;;;7.72;100.00
8523;BME280;4299;42.202;24.736;2022-12-08T07:02:10;99753.56;;;7.81;100.00
8523;BME280;4299;42.202;24.736;2022-12-08T07:04:37;99750.72;;;7.86;100.00
8523;BME280;4299;42.202;24.736;2022-12-08T07:07:04;99751.31;;;7.93;100.00
8523;BME280;4299;42.202;24.736;2022-12-08T07:09:31;99755.22;;;8.04;100.00
8523;BME280;4299;42.202;24.736;2022-12-08T07:11:57;99760.28;;;8.10;100.00
8523;BME280;4299;42.202;24.736;2022-12-08T07:14:24;99753.03;;;8.15;100.00
8523;BME280;4299;42.202;24.736;2022-12-08T07:16:51;99753.88;;;8.16;100.00
8523;BME280;4299;42.202;24.736;2022-12-08T07:19:19;99759.00;;;8.19;100.00
8523;BME280;4299;42.202;24.736;2022-12-08T07:21:46;99772.16;;;8.20;100.00
8523;BME280;4299;42.202;24.736;2022-12-08T07:24:13;99767.03;;;8.17;100.00
8523;BME280;4299;42.202;24.736;2022-12-08T07:26:40;99768.59;;;8.21;100.00
8523;BME280;4299;42.202;24.736;2022-12-08T07:29:08;99777.31;;;8.24;100.00
8523;BME280;4299;42.202;24.736;2022-12-08T07:31:35;99789.59;;;8.25;100.00
8523;BME280;4299;42.202;24.736;2022-12-08T07:34:02;99783.59;;;8.21;100.00
8523;BME280;4299;42.202;24.736;2022-12-08T07:39:25;99784.56;;;8.18;100.00
8523;BME280;4299;42.202;24.736;2022-12-08T07:41:51;99795.00;;;8.21;100.00
8523;BME280;4299;42.202;24.736;2022-12-08T07:44:18;99798.56;;;8.20;100.00
8523;BME280;4299;42.202;24.736;2022-12-08T07:46:45;99801.66;;;8.32;100.00
8523;BME280;4299;42.202;24.736;2022-12-08T07:49:12;99797.84;;;8.39;100.00
8523;BME280;4299;42.202;24.736;2022-12-08T07:51:38;99803.25;;;8.36;100.00
8523;BME280;4299;42.202;24.736;2022-12-08T07:54:05;99802.31;;;8.37;100.00
8523;BME280;4299;42.202;24.736;2022-12-08T07:56:33;99812.22;;;8.32;100.00
8523;BME280;4299;42.202;24.736;2022-12-08T07:59:00;99810.50;;;8.31;100.00
8523;BME280;4299;42.202;24.736;2022-12-08T08:01:30;99807.94;;;8.28;100.00
8523;BME280;4299;42.202;24.736;2022-12-08T08:04:00;99806.94;;;8.32;100.00
8523;BME280;4299;42.202;24.736;2022-12-08T08:06:29;99803.38;;;8.33;100.00
8523;BME280;4299;42.202;24.736;2022-12-08T08:08:56;99803.13;;;8.39;100.00
8523;BME280;4299;42.202;24.736;2022-12-08T08:11:22;99806.41;;;8.44;100.00
8523;BME280;4299;42.202;24.736;2022-12-08T08:13:50;99811.72;;;8.44;100.00
8523;BME280;4299;42.202;24.736;2022-12-08T08:16:18;99823.13;;;8.44;100.00
8523;BME280;4299;42.202;24.736;2022-12-08T08:18:46;99806.53;;;8.41;100.00
8523;BME280;4299;42.202;24.736;2022-12-08T08:21:13;99812.50;;;8.46;100.00
8523;BME280;4299;42.202;24.736;2022-12-08T08:23:40;99807.88;;;8.51;100.00
8523;BME280;4299;42.202;24.736;2022-12-08T08:26:07;99816.34;;;8.59;100.00
8523;BME280;4299;42.202;24.736;2022-12-08T08:28:34;99807.34;;;8.63;100.00
8523;BME280;4299;42.202;24.736;2022-12-08T08:31:02;99806.03;;;8.73;100.00
8523;BME280;4299;42.202;24.736;2022-12-08T08:33:29;99815.81;;;8.71;100.00
8523;BME280;4299;42.202;24.736;2022-12-08T08:35:55;99815.53;;;8.77;100.00
8523;BME280;4299;42.202;24.736;2022-12-08T08:38:37;99819.38;;;8.90;100.00
8523;BME280;4299;42.202;24.736;2022-12-08T08:41:06;99811.25;;;8.75;100.00
8523;BME280;4299;42.202;24.736;2022-12-08T08:43:34;99813.69;;;8.79;100.00
8523;BME280;4299;42.202;24.736;2022-12-08T08:46:03;99807.72;;;8.94;100.00
8523;BME280;4299;42.202;24.736;2022-12-08T08:48:31;99805.34;;;9.09;100.00
8523;BME280;4299;42.202;24.736;2022-12-08T08:51:04;99793.25;;;9.22;100.00
8523;BME280;4299;42.202;24.736;2022-12-08T08:53:32;99794.78;;;9.46;100.00
8523;BME280;4299;42.202;24.736;2022-12-08T08:55:58;99799.06;;;9.67;100.00
8523;BME280;4299;42.202;24.736;2022-12-08T08:58:25;99795.38;;;9.71;100.00
8523;BME280;4299;42.202;24.736;2022-12-08T09:00:54;99789.16;;;9.90;100.00
8523;BME280;4299;42.202;24.736;2022-12-08T09:03:22;99794.50;;;10.07;100.00
8523;BME280;4299;42.202;24.736;2022-12-08T09:05:49;99789.03;;;10.10;100.00
8523;BME280;4299;42.202;24.736;2022-12-08T09:08:16;99790.09;;;10.25;100.00
8523;BME280;4299;42.202;24.736;2022-12-08T09:10:42;99790.38;;;10.37;100.00
8523;BME280;4299;42.202;24.736;2022-12-08T09:13:09;99783.91;;;10.43;100.00
8523;BME280;4299;42.202;24.736;2022-12-08T09:15:36;99799.72;;;10.62;100.00
8523;BME280;4299;42.202;24.736;2022-12-08T09:18:02;99800.25;;;10.68;100.00
8523;BME280;4299;42.202;24.736;2022-12-08T09:20:32;99803.91;;;10.83;100.00
8523;BME280;4299;42.202;24.736;2022-12-08T09:22:59;99796.72;;;10.85;100.00
8523;BME280;4299;42.202;24.736;2022-12-08T09:25:27;99798.44;;;10.86;100.00
8523;BME280;4299;42.202;24.736;2022-12-08T09:27:53;99798.84;;;10.96;100.00
8523;BME280;4299;42.202;24.736;2022-12-08T09:30:20;99800.00;;;10.90;100.00
8523;BME280;4299;42.202;24.736;2022-12-08T09:32:47;99793.16;;;10.86;100.00
8523;BME280;4299;42.202;24.736;2022-12-08T09:35:14;99785.78;;;10.91;100.00
8523;BME280;4299;42.202;24.736;2022-12-08T09:37:41;99779.31;;;10.97;100.00
8523;BME280;4299;42.202;24.736;2022-12-08T09:40:10;99778.84;;;11.21;100.00
8523;BME280;4299;42.202;24.736;2022-12-08T09:42:42;99785.41;;;11.31;100.00
8523;BME280;4299;42.202;24.736;2022-12-08T09:45:14;99782.63;;;11.17;100.00
8523;BME280;4299;42.202;24.736;2022-12-08T09:47:46;99770.78;;;11.07;100.00
8523;BME280;4299;42.202;24.736;2022-12-08T09:50:17;99774.38;;;11.06;100.00
8523;BME280;4299;42.202;24.736;2022-12-08T09:52:54;99770.78;;;11.07;100.00
8523;BME280;4299;42.202;24.736;2022-12-08T09:55:28;99773.03;;;11.15;100.00
8523;BME280;4299;42.202;24.736;2022-12-08T10:01:15;99772.88;;;11.33;100.00
8523;BME280;4299;42.202;24.736;2022-12-08T10:03:42;99760.72;;;11.29;100.00
8523;BME280;4299;42.202;24.736;2022-12-08T10:06:18;99763.63;;;11.09;100.00
8523;BME280;4299;42.202;24.736;2022-12-08T10:08:57;99770.00;;;11.05;100.00
8523;BME280;4299;42.202;24.736;2022-12-08T10:11:32;99760.63;;;11.15;100.00
8523;BME280;4299;42.202;24.736;2022-12-08T10:14:10;99757.47;;;11.24;100.00
8523;BME280;4299;42.202;24.736;2022-12-08T10:16:44;99757.13;;;11.30;100.00
8523;BME280;4299;42.202;24.736;2022-12-08T10:19:16;99750.03;;;11.31;100.00
8523;BME280;4299;42.202;24.736;2022-12-08T10:21:44;99745.50;;;11.17;100.00
8523;BME280;4299;42.202;24.736;2022-12-08T10:24:19;99750.78;;;11.17;100.00
8523;BME280;4299;42.202;24.736;2022-12-08T10:26:48;99746.47;;;10.99;100.00
8523;BME280;4299;42.202;24.736;2022-12-08T10:29:15;99745.41;;;10.86;100.00
8523;BME280;4299;42.202;24.736;2022-12-08T10:31:41;99739.94;;;10.89;100.00
8523;BME280;4299;42.202;24.736;2022-12-08T10:34:17;99727.78;;;10.85;100.00
8523;BME280;4299;42.202;24.736;2022-12-08T10:36:46;99735.88;;;10.82;100.00
8523;BME280;4299;42.202;24.736;2022-12-08T10:39:33;99737.78;;;10.80;100.00
8523;BME280;4299;42.202;24.736;2022-12-08T10:42:05;99737.94;;;10.77;100.00
8523;BME280;4299;42.202;24.736;2022-12-08T10:44:32;99727.94;;;10.82;100.00
8523;BME280;4299;42.202;24.736;2022-12-08T10:47:10;99719.41;;;10.92;100.00
8523;BME280;4299;42.202;24.736;2022-12-08T10:49:37;99719.50;;;10.91;100.00
8523;BME280;4299;42.202;24.736;2022-12-08T10:52:08;99723.53;;;10.98;100.00
8523;BME280;4299;42.202;24.736;2022-12-08T10:54:36;99720.72;;;11.01;100.00
8523;BME280;4299;42.202;24.736;2022-12-08T10:57:03;99719.88;;;11.01;100.00
8523;BME280;4299;42.202;24.736;2022-12-08T10:59:32;99714.63;;;10.99;100.00
8523;BME280;4299;42.202;24.736;2022-12-08T11:01:59;99708.41;;;11.00;100.00
8523;BME280;4299;42.202;24.736;2022-12-08T11:04:33;99717.72;;;11.07;100.00
8523;BME280;4299;42.202;24.736;2022-12-08T11:07:02;99711.03;;;11.00;100.00
8523;BME280;4299;42.202;24.736;2022-12-08T11:09:38;99717.28;;;10.99;100.00
8523;BME280;4299;42.202;24.736;2022-12-08T11:12:12;99712.91;;;10.98;100.00
8523;BME280;4299;42.202;24.736;2022-12-08T11:14:50;99707.63;;;10.98;100.00
8523;BME280;4299;42.202;24.736;2022-12-08T11:17:24;99705.16;;;10.95;100.00
8523;BME280;4299;42.202;24.736;2022-12-08T11:19:58;99690.09;;;10.96;100.00
8523;BME280;4299;42.202;24.736;2022-12-08T11:22:28;99686.38;;;10.98;100.00
8523;BME280;4299;42.202;24.736;2022-12-08T11:25:00;99688.88;;;11.01;100.00
8523;BME280;4299;42.202;24.736;2022-12-08T11:27:27;99689.81;;;11.00;100.00
8523;BME280;4299;42.202;24.736;2022-12-08T11:29:54;99695.22;;;10.99;100.00
8523;BME280;4299;42.202;24.736;2022-12-08T11:32:22;99688.97;;;11.00;100.00
8523;BME280;4299;42.202;24.736;2022-12-08T11:34:52;99692.56;;;10.99;100.00
8523;BME280;4299;42.202;24.736;2022-12-08T11:37:23;99685.88;;;10.91;100.00
8523;BME280;4299;42.202;24.736;2022-12-08T11:39:53;99685.19;;;10.88;100.00
8523;BME280;4299;42.202;24.736;2022-12-08T11:42:25;99666.19;;;10.80;100.00
8523;BME280;4299;42.202;24.736;2022-12-08T11:44:57;99671.97;;;10.71;100.00
8523;BME280;4299;42.202;24.736;2022-12-08T11:47:27;99679.34;;;10.66;100.00
8523;BME280;4299;42.202;24.736;2022-12-08T11:50:03;99674.34;;;10.60;100.00
8523;BME280;4299;42.202;24.736;2022-12-08T11:52:45;99677.56;;;10.49;100.00
8523;BME280;4299;42.202;24.736;2022-12-08T11:55:23;99670.03;;;10.41;100.00
8523;BME280;4299;42.202;24.736;2022-12-08T11:57:56;99668.47;;;10.37;100.00
8523;BME280;4299;42.202;24.736;2022-12-08T12:00:25;99667.78;;;10.34;100.00
8523;BME280;4299;42.202;24.736;2022-12-08T12:02:57;99661.59;;;10.33;100.00
8523;BME280;4299;42.202;24.736;2022-12-08T12:05:30;99660.22;;;10.26;100.00
8523;BME280;4299;42.202;24.736;2022-12-08T12:08:08;99659.53;;;10.23;100.00
8523;BME280;4299;42.202;24.736;2022-12-08T12:10:49;99644.66;;;10.20;100.00
8523;BME280;4299;42.202;24.736;2022-12-08T12:16:27;99659.25;;;10.10;100.00
8523;BME280;4299;42.202;24.736;2022-12-08T12:18:59;99667.28;;;10.08;100.00
8523;BME280;4299;42.202;24.736;2022-12-08T12:21:30;99655.69;;;10.11;100.00
8523;BME280;4299;42.202;24.736;2022-12-08T12:24:03;99668.25;;;10.07;100.00
8523;BME280;4299;42.202;24.736;2022-12-08T12:26:34;99666.59;;;10.05;100.00
8523;BME280;4299;42.202;24.736;2022-12-08T12:29:05;99673.13;;;9.98;100.00
8523;BME280;4299;42.202;24.736;2022-12-08T12:31:34;99675.72;;;9.99;100.00
8523;BME280;4299;42.202;24.736;2022-12-08T12:34:06;99675.78;;;9.98;100.00
8523;BME280;4299;42.202;24.736;2022-12-08T12:36:45;99668.91;;;9.94;100.00
8523;BME280;4299;42.202;24.736;2022-12-08T12:39:13;99668.22;;;9.90;100.00
8523;BME280;4299;42.202;24.736;2022-12-08T12:41:45;99670.00;;;9.90;100.00
8523;BME280;4299;42.202;24.736;2022-12-08T12:44:35;99669.94;;;9.91;100.00
8523;BME280;4299;42.202;24.736;2022-12-08T12:47:05;99672.66;;;9.90;100.00
8523;BME280;4299;42.202;24.736;2022-12-08T12:49:50;99672.19;;;9.99;100.00
8523;BME280;4299;42.202;24.736;2022-12-08T12:52:40;99665.81;;;10.03;100.00
8523;BME280;4299;42.202;24.736;2022-12-08T12:55:27;99664.88;;;10.04;100.00
8523;BME280;4299;42.202;24.736;2022-12-08T12:57:55;99662.22;;;10.04;100.00
8523;BME280;4299;42.202;24.736;2022-12-08T13:00:26;99655.84;;;10.08;100.00
8523;BME280;4299;42.202;24.736;2022-12-08T13:02:54;99664.72;;;10.07;100.00
8523;BME280;4299;42.202;24.736;2022-12-08T13:05:24;99661.28;;;10.05;100.00
8523;BME280;4299;42.202;24.736;2022-12-08T13:07:54;99663.94;;;10.05;100.00
8523;BME280;4299;42.202;24.736;2022-12-08T13:10:24;99678.19;;;10.02;100.00
8523;BME280;4299;42.202;24.736;2022-12-08T13:13:04;99669.56;;;9.99;100.00
8523;BME280;4299;42.202;24.736;2022-12-08T13:15:35;99654.59;;;9.98;100.00
8523;BME280;4299;42.202;24.736;2022-12-08T13:18:04;99659.91;;;9.98;100.00
8523;BME280;4299;42.202;24.736;2022-12-08T13:20:39;99666.59;;;10.05;100.00
8523;BME280;4299;42.202;24.736;2022-12-08T13:23:24;99656.94;;;10.04;100.00
8523;BME280;4299;42.202;24.736;2022-12-08T13:26:08;99656.00;;;10.05;100.00
8523;BME280;4299;42.202;24.736;2022-12-08T13:31:47;99645.88;;;9.96;100.00
8523;BME280;4299;42.202;24.736;2022-12-08T13:34:18;99645.72;;;9.99;100.00